Musette — WDB9800 — position and weather

sailwx.info

Track history (hours):
 
Tides and Currents Weather Stations Pressure Air Temp Water Temp Dewpoint Dewpoint Depression Visibility Wind Speed Wind Dir Waves Ship Positions

Musette

Owner: Carfi Enterprises, Wellington, FL. More information available from US FCC via Universal Licensing System and Coast Guard Vessel Documentation Center.

Last reported at 2018-Aug-12 07:16 UTC. Time now 2018-Aug-16 08:45 UTC.
Position N 26°07' W 080°08'.

; draft 2 m.

Type: Ship. MMSI: 366983050.

Date/timePositionNaut miles runAvg speedWind from/ knotsBaromVisibWave heightAir tempDewpointWater temp
2018-Aug-12 07:16N 26°07' W 080°08'0 0.0
2018-Aug-12 07:00N 26°07' W 080°08'2 3.3
2018-Aug-12 06:30N 26°06' W 080°07'0 0.7
2018-Aug-12 06:00N 26°05' W 080°07'0 0.1
2018-Aug-12 05:30N 26°05' W 080°07'1 1.4
2018-Aug-12 05:00N 26°05' W 080°07'0 0.9
2018-Aug-12 04:30N 26°05' W 080°07'0 0.7
2018-Aug-12 04:00N 26°05' W 080°07'2 4.3
2018-Aug-12 03:30N 26°07' W 080°07'1 1.6
2018-Aug-12 03:00N 26°07' W 080°08'0 0.0
2018-Aug-12 02:30N 26°07' W 080°08'0 0.0
2018-Aug-10 23:51N 26°07' W 080°08'1 1.6
2018-Aug-10 23:30N 26°07' W 080°08'3 6.5
2018-Aug-10 23:00N 26°05' W 080°05'3 7.0
2018-Aug-10 22:30N 26°01' W 080°05'3 5.7
2018-Aug-10 22:00N 25°59' W 080°06'4 7.7
2018-Aug-10 21:30N 25°55' W 080°06'4 7.5
2018-Aug-10 21:00N 25°51' W 080°06'4 7.5
2018-Aug-10 20:30N 25°47' W 080°07'3 5.5
2018-Aug-10 20:00N 25°46' W 080°09'2 3.6
2018-Aug-10 19:30N 25°47' W 080°11'0 0.0
2018-Aug-10 19:00N 25°47' W 080°11'0 0.8
2018-Aug-10 18:30N 25°47' W 080°11'2 4.4
2018-Aug-10 18:00N 25°45' W 080°11'2 3.2
2018-Aug-10 17:30N 25°46' W 080°11'1 1.6
2018-Aug-10 17:00N 25°46' W 080°10'0 0.3
2018-Aug-10 16:30N 25°46' W 080°10'1 2.2
2018-Aug-10 16:00N 25°47' W 080°11'0 0.0
2018-Aug-10 15:30N 25°47' W 080°11'0 0.0
2018-Aug-10 15:00N 25°47' W 080°11'0 0.0
2018-Aug-10 14:29N 25°47' W 080°11'0 0.0
2018-Aug-10 14:00N 25°47' W 080°11'0 0.0
2018-Aug-10 13:30N 25°47' W 080°11'0 0.0
2018-Aug-10 13:00N 25°47' W 080°11'3 5.6
2018-Aug-10 12:30N 25°46' W 080°08'3 5.2
2018-Aug-10 12:00N 25°48' W 080°06'3 7.0
2018-Aug-10 11:30N 25°51' W 080°06'4 7.5
2018-Aug-10 10:59N 25°55' W 080°06'4 7.6
2018-Aug-10 10:30N 25°59' W 080°06'4 7.5
2018-Aug-10 10:00N 26°03' W 080°06'3 6.2
2018-Aug-10 09:30N 26°06' W 080°07'2 3.6
2018-Aug-10 09:00N 26°07' W 080°08'  
Track history (hours):
 
Tides and Currents Weather Stations Pressure Air Temp Water Temp Dewpoint Dewpoint Depression Visibility Wind Speed Wind Dir Waves Ship Positions

Musette

Owner: Carfi Enterprises, Wellington, FL. More information available from US FCC via Universal Licensing System and Coast Guard Vessel Documentation Center.

Last reported at 2018-Aug-12 07:16 UTC. Time now 2018-Aug-16 08:45 UTC.
Position N 26°07' W 080°08'.

; draft 2 m.

Type: Ship. MMSI: 366983050.

Date/timePositionNaut miles runAvg speedWind from/ knotsBaromVisibWave heightAir tempDewpointWater temp
2018-Aug-12 07:16N 26°07' W 080°08'0 0.0
2018-Aug-12 07:00N 26°07' W 080°08'2 3.3
2018-Aug-12 06:30N 26°06' W 080°07'0 0.7
2018-Aug-12 06:00N 26°05' W 080°07'0 0.1
2018-Aug-12 05:30N 26°05' W 080°07'1 1.4
2018-Aug-12 05:00N 26°05' W 080°07'0 0.9
2018-Aug-12 04:30N 26°05' W 080°07'0 0.7
2018-Aug-12 04:00N 26°05' W 080°07'2 4.3
2018-Aug-12 03:30N 26°07' W 080°07'1 1.6
2018-Aug-12 03:00N 26°07' W 080°08'0 0.0
2018-Aug-12 02:30N 26°07' W 080°08'0 0.0
2018-Aug-10 23:51N 26°07' W 080°08'1 1.6
2018-Aug-10 23:30N 26°07' W 080°08'3 6.5
2018-Aug-10 23:00N 26°05' W 080°05'3 7.0
2018-Aug-10 22:30N 26°01' W 080°05'3 5.7
2018-Aug-10 22:00N 25°59' W 080°06'4 7.7
2018-Aug-10 21:30N 25°55' W 080°06'4 7.5
2018-Aug-10 21:00N 25°51' W 080°06'4 7.5
2018-Aug-10 20:30N 25°47' W 080°07'3 5.5
2018-Aug-10 20:00N 25°46' W 080°09'2 3.6
2018-Aug-10 19:30N 25°47' W 080°11'0 0.0
2018-Aug-10 19:00N 25°47' W 080°11'0 0.8
2018-Aug-10 18:30N 25°47' W 080°11'2 4.4
2018-Aug-10 18:00N 25°45' W 080°11'2 3.2
2018-Aug-10 17:30N 25°46' W 080°11'1 1.6
2018-Aug-10 17:00N 25°46' W 080°10'0 0.3
2018-Aug-10 16:30N 25°46' W 080°10'1 2.2
2018-Aug-10 16:00N 25°47' W 080°11'0 0.0
2018-Aug-10 15:30N 25°47' W 080°11'0 0.0
2018-Aug-10 15:00N 25°47' W 080°11'0 0.0
2018-Aug-10 14:29N 25°47' W 080°11'0 0.0
2018-Aug-10 14:00N 25°47' W 080°11'0 0.0
2018-Aug-10 13:30N 25°47' W 080°11'0 0.0
2018-Aug-10 13:00N 25°47' W 080°11'3 5.6
2018-Aug-10 12:30N 25°46' W 080°08'3 5.2
2018-Aug-10 12:00N 25°48' W 080°06'3 7.0
2018-Aug-10 11:30N 25°51' W 080°06'4 7.5
2018-Aug-10 10:59N 25°55' W 080°06'4 7.6
2018-Aug-10 10:30N 25°59' W 080°06'4 7.5
2018-Aug-10 10:00N 26°03' W 080°06'3 6.2
2018-Aug-10 09:30N 26°06' W 080°07'2 3.6
2018-Aug-10 09:00N 26°07' W 080°08'  

Dump ship's entire track history